Wenecja, Włochy

15:13 CET dnia 25-styczeń-2015 (GMT +0100)
Venezia | Change Station
CLOSE
Current Station
Stacja PWS
Location: Dese, Venezia
n.p.m.: 14 ft
Najbliższa stacja pogodowa

Wysokość 14 ft 45.53 °N, 12.31 °E | Updated 3 minutes ago

Scattered Clouds
obłoki zanikające
48.7 ° F
Odczuwalna 49 ° F
Płn.
2.0
Wiatr zmienny Wiatr od południowy
Gusts 5.0 mph

Dziś
Wysoka -- | Niska -- ° F
--% Prawdop. opadów
Wczoraj
Wysoka -- | Niska -- ° F
Precip. -- cali
7:39 AM 5:06 PM
Powiększający się sierp Księżyca, 32% visible
Ciśnienie 30.01 cali
Widzialność 6.2 mil
chmury obłoki zanikające 10000 ft
czynnik chłodzący wiatru 49 ° F
Punkt rosy 38 ° F
Wilgotność 65%
Opady deszczu 0.00 cali
grubość pokrywy śnieżnej Niedostępne.
UV 1 z 12
Pyłki Niedostępne.
Jakość powietrza Niedostępne.
Flu Activity Niedostępne.
METAR LIPS 251355Z 22004KT 9999 SCT100 11/01 Q1016 RMK BKN SCT200 VIS MIN 9999 WIND THR26 /////KT WIND THR08 18004KT BLU

More Conditions Fewer Conditions

Ciśnienie 30.01 cali
Widzialność 6.2 mil
chmury obłoki zanikające 10000 ft
czynnik chłodzący wiatru 49 ° F
Punkt rosy 38 ° F
Wilgotność 65%
Opady deszczu 0.00 cali
grubość pokrywy śnieżnej Niedostępne.
UV 1 z 12
Pyłki Niedostępne.
Jakość powietrza Niedostępne.
Flu Activity Niedostępne.
METAR LIPS 251355Z 22004KT 9999 SCT100 11/01 Q1016 RMK BKN SCT200 VIS MIN 9999 WIND THR26 /////KT WIND THR08 18004KT BLU

More Conditions Fewer Conditions

10-Day Weather Forecast

Almanac

Astronomia

Jan. 25, 2015 Wschód Zachów
Aktualny czas
Zmierzch cywilny
Zmierzch żeglarski
świt/zmierzch astronomiczny
Księżyc
całkowite oświetlenie
Długość dnia
Tomorrow will be .
, % of the Moon is Illuminated

Dzisiejsze ekstrema

Country Highs Country Lows

Community

WunderPhotos

Upload Photos

1,789,893 zdjęcia zostały przesłane!

WunderBlogs® & News

Nearby

Jakość powietrza

  Jakość powietrza czynnik AQ Zanieczyszczenie
Not available.

Głębokość pokrywy śnieżnej

Station Depth n.p.m.

Aktywność sejsmiczna

Miejscowość Distance Mag. Time & Date
Minimum magnitude displayed is 2.5.

Temperatury wody na wybrzeżu

Miejsce Temperatura

Najbliższa stacja pogodowa